sensor_id;sensor_type;location;lat;lon;timestamp;pressure;altitude;pressure_sealevel;temperature;humidity
85053;BME280;75382;46.706;12.340;2024-01-30T00:00:17;1032.9279598270016;;;-3.5642578125;61.441620962416586
85053;BME280;75382;46.706;12.340;2024-01-30T00:01:16;1032.9516468353875;;;-3.5744140625;61.62220525132144
85053;BME280;75382;46.706;12.340;2024-01-30T00:02:16;1032.8864791822011;;;-3.5744140625;61.530796048793256
85053;BME280;75382;46.706;12.340;2024-01-30T00:03:18;1032.8638508257839;;;-3.5845703125;61.36936379300931
85053;BME280;75382;46.706;12.340;2024-01-30T00:04:17;1032.8546926491904;;;-3.5947265625;61.428092243107365
85053;BME280;75382;46.706;12.340;2024-01-30T00:05:19;1032.8519963325002;;;-3.61015625;61.513513617592984
85053;BME280;75382;46.706;12.340;2024-01-30T00:06:18;1032.8945322030463;;;-3.605078125;61.299014688291955
85053;BME280;75382;46.706;12.340;2024-01-30T00:07:16;1032.8735315174536;;;-3.615234375;61.768486855730856
85053;BME280;75382;46.706;12.340;2024-01-30T00:08:19;1032.8692194863809;;;-3.625390625;61.64602620818255
85053;BME280;75382;46.706;12.340;2024-01-30T00:09:16;1032.86705695644;;;-3.625390625;61.38883018690853
85053;BME280;75382;46.706;12.340;2024-01-30T00:10:17;1032.8592239391817;;;-3.63046875;61.6127253031416
85053;BME280;75382;46.706;12.340;2024-01-30T00:11:16;1032.9044546814966;;;-3.6203125;61.623719387612425
85053;BME280;75382;46.706;12.340;2024-01-30T00:12:16;1032.8586764400052;;;-3.635546875;61.527313699711605
85053;BME280;75382;46.706;12.340;2024-01-30T00:13:19;1032.8468212949965;;;-3.63046875;61.42588461078759
85053;BME280;75382;46.706;12.340;2024-01-30T00:14:19;1032.83549979809;;;-3.645703125;61.621800291252846
85053;BME280;75382;46.706;12.340;2024-01-30T00:15:16;1032.8338845092499;;;-3.666015625;61.73453094608716
85053;BME280;75382;46.706;12.340;2024-01-30T00:16:24;1032.8801946698904;;;-3.6609375;61.579414810635846
85053;BME280;75382;46.706;12.340;2024-01-30T00:17:16;1032.8758972301964;;;-3.6609375;61.46731602597775
85053;BME280;75382;46.706;12.340;2024-01-30T00:18:18;1032.848422111141;;;-3.6609375;61.69621014902599
85053;BME280;75382;46.706;12.340;2024-01-30T00:19:16;1032.8694208786849;;;-3.6712890625;61.674859544813614
85053;BME280;75382;46.706;12.340;2024-01-30T00:20:16;1032.8850405819971;;;-3.6712890625;61.55742880510555
85053;BME280;75382;46.706;12.340;2024-01-30T00:21:16;1032.8360333128821;;;-3.6712890625;61.577828088867584
85053;BME280;75382;46.706;12.340;2024-01-30T00:22:16;1032.832787560154;;;-3.6763671875;61.75396518419924
85053;BME280;75382;46.706;12.340;2024-01-30T00:23:16;1032.874783709322;;;-3.6814453125;61.69461625141038
85053;BME280;75382;46.706;12.340;2024-01-30T00:24:16;1032.855400865807;;;-3.6814453125;61.69461625141038
85053;BME280;75382;46.706;12.340;2024-01-30T00:25:16;1032.8909360860375;;;-3.6916015625;61.69461625141038
85053;BME280;75382;46.706;12.340;2024-01-30T00:26:16;1032.866157980669;;;-3.6916015625;61.998506874684146
85053;BME280;75382;46.706;12.340;2024-01-30T00:27:17;1032.8534789807522;;;-3.6966796875;61.854411090754795
85053;BME280;75382;46.706;12.340;2024-01-30T00:28:19;1032.8435450406682;;;-3.6865234375;61.87042203754916
85053;BME280;75382;46.706;12.340;2024-01-30T00:29:20;1032.8260206553855;;;-3.7017578125;61.860068884981175
85053;BME280;75382;46.706;12.340;2024-01-30T00:30:17;1032.8130990969794;;;-3.6916015625;61.646261863344314
85053;BME280;75382;46.706;12.340;2024-01-30T00:31:19;1032.8416229396992;;;-3.7068359375;61.75204804707733
85053;BME280;75382;46.706;12.340;2024-01-30T00:32:16;1032.8443205906738;;;-3.7068359375;61.63526908409575
85053;BME280;75382;46.706;12.340;2024-01-30T00:33:17;1032.8173954099402;;;-3.7119140625;61.714689102089764
85053;BME280;75382;46.706;12.340;2024-01-30T00:34:16;1032.852929125237;;;-3.7068359375;61.97683751162698
85053;BME280;75382;46.706;12.340;2024-01-30T00:35:17;1032.7705397353498;;;-3.7119140625;61.94417322571828
85053;BME280;75382;46.706;12.340;2024-01-30T00:36:16;1032.8405403994952;;;-3.7068359375;62.00755480915326
85053;BME280;75382;46.706;12.340;2024-01-30T00:37:16;1032.8566737436533;;;-3.7169921875;61.820454307690945
85053;BME280;75382;46.706;12.340;2024-01-30T00:38:16;1032.8534616481124;;;-3.7169921875;61.89484535754459
85053;BME280;75382;46.706;12.340;2024-01-30T00:39:20;1032.8674474397253;;;-3.7169921875;61.889508878453576
85053;BME280;75382;46.706;12.340;2024-01-30T00:40:16;1032.8798363703168;;;-3.7220703125;61.996559402928625
85053;BME280;75382;46.706;12.340;2024-01-30T00:41:19;1032.8421376964975;;;-3.7271484375;61.9325222507969
85053;BME280;75382;46.706;12.340;2024-01-30T00:42:16;1032.8566737436533;;;-3.7373046875;62.188013827607854
85053;BME280;75382;46.706;12.340;2024-01-30T00:43:19;1032.888444139716;;;-3.7220703125;62.080969621231276
85053;BME280;75382;46.706;12.340;2024-01-30T00:44:16;1032.8362095215648;;;-3.7322265625;62.06528483504429
85053;BME280;75382;46.706;12.340;2024-01-30T00:45:16;1032.8421190327326;;;-3.74765625;61.95257990838084
85053;BME280;75382;46.706;12.340;2024-01-30T00:46:16;1032.8528926082608;;;-3.7423828125;61.89388131730978
85053;BME280;75382;46.706;12.340;2024-01-30T00:47:16;1032.8658133298682;;;-3.7373046875;62.075957098731934
85053;BME280;75382;46.706;12.340;2024-01-30T00:48:16;1032.8587814716157;;;-3.7423828125;62.1333569253446
85053;BME280;75382;46.706;12.340;2024-01-30T00:49:16;1032.8049537437196;;;-3.752734375;61.99462396299008
85053;BME280;75382;46.706;12.340;2024-01-30T00:50:24;1032.8830275817513;;;-3.74765625;62.245080673377444
85053;BME280;75382;46.706;12.340;2024-01-30T00:51:17;1032.8453296370667;;;-3.762890625;62.0153221238577
85053;BME280;75382;46.706;12.340;2024-01-30T00:52:16;1032.9155481635385;;;-3.7578125;62.05768509708833
85053;BME280;75382;46.706;12.340;2024-01-30T00:53:16;1032.8821640764;;;-3.76796875;61.99333346343533
85053;BME280;75382;46.706;12.340;2024-01-30T00:54:16;1032.919309040303;;;-3.773046875;62.13205974059594
85053;BME280;75382;46.706;12.340;2024-01-30T00:55:16;1032.9445950469403;;;-3.783203125;62.14240630570207
85053;BME280;75382;46.706;12.340;2024-01-30T00:56:19;1032.933820684303;;;-3.783203125;62.06770938681499
85053;BME280;75382;46.706;12.340;2024-01-30T00:57:16;1032.8939773904756;;;-3.783203125;61.987029933280716
85053;BME280;75382;46.706;12.340;2024-01-30T00:58:16;1032.9483553263367;;;-3.78828125;61.96001737850336
85053;BME280;75382;46.706;12.340;2024-01-30T00:59:16;1032.9289517684058;;;-3.78828125;62.21077781570559
85053;BME280;75382;46.706;12.340;2024-01-30T01:00:18;1032.9671799736166;;;-3.7984375;62.16712203375691
85053;BME280;75382;46.706;12.340;2024-01-30T01:01:16;1032.9332416796992;;;-3.7984375;62.01240334587452
85053;BME280;75382;46.706;12.340;2024-01-30T01:02:18;1032.9601651180333;;;-3.813671875;62.05476157782788
85053;BME280;75382;46.706;12.340;2024-01-30T01:03:16;1032.9714433170857;;;-3.8189453125;61.97473386140874
85053;BME280;75382;46.706;12.340;2024-01-30T01:04:16;1032.9477498822794;;;-3.8240234375;61.87272004454066
85053;BME280;75382;46.706;12.340;2024-01-30T01:05:16;1032.9229972903886;;;-3.8291015625;61.98475898446751
85053;BME280;75382;46.706;12.340;2024-01-30T01:06:16;1032.9611981003577;;;-3.8392578125;61.9900940792116
85053;BME280;75382;46.706;12.340;2024-01-30T01:07:16;1032.9326604844655;;;-3.8291015625;62.09582205067767
85053;BME280;75382;46.706;12.340;2024-01-30T01:08:16;1032.9552680709498;;;-3.8392578125;62.031804696902725
85053;BME280;75382;46.706;12.340;2024-01-30T01:09:16;1032.916195626049;;;-3.8544921875;61.9244623679967
85053;BME280;75382;46.706;12.340;2024-01-30T01:10:17;1032.894118085163;;;-3.8544921875;61.956793848240956
85053;BME280;75382;46.706;12.340;2024-01-30T01:11:16;1032.8984329821662;;;-3.8595703125;61.967141061122646
85053;BME280;75382;46.706;12.340;2024-01-30T01:12:16;1032.925327874006;;;-3.8595703125;62.09484980744486
85053;BME280;75382;46.706;12.340;2024-01-30T01:13:24;1032.9172540748996;;;-3.8748046875;62.16886996986489
85053;BME280;75382;46.706;12.340;2024-01-30T01:14:16;1032.8908616765875;;;-3.8748046875;61.89115396468743
85053;BME280;75382;46.706;12.340;2024-01-30T01:15:16;1032.895705873047;;;-3.8798828125;61.91217059548484
85053;BME280;75382;46.706;12.340;2024-01-30T01:16:16;1032.9059232544041;;;-3.8798828125;62.028882193065435
85053;BME280;75382;46.706;12.340;2024-01-30T01:17:16;1032.8903050847725;;;-3.890234375;61.89455793979069
85053;BME280;75382;46.706;12.340;2024-01-30T01:18:16;1032.861741801251;;;-3.890234375;62.183246611879404
85053;BME280;75382;46.706;12.340;2024-01-30T01:19:16;1032.8428949316612;;;-3.90546875;61.9325421059172
85053;BME280;75382;46.706;12.340;2024-01-30T01:20:16;1032.8891908818907;;;-3.90546875;62.12392363012412
85053;BME280;75382;46.706;12.340;2024-01-30T01:21:16;1032.8795029689422;;;-3.900390625;62.080928058759504
85053;BME280;75382;46.706;12.340;2024-01-30T01:22:16;1032.8698150583223;;;-3.90546875;62.192612831042794
85053;BME280;75382;46.706;12.340;2024-01-30T01:23:19;1032.8601271500306;;;-3.910546875;62.0115865467489
85053;BME280;75382;46.706;12.340;2024-01-30T01:24:16;1032.8509681185942;;;-3.915625;62.03825652785211
85053;BME280;75382;46.706;12.340;2024-01-30T01:25:19;1032.8886622272023;;;-3.910546875;62.0005953827744
85053;BME280;75382;46.706;12.340;2024-01-30T01:26:16;1032.8415189844568;;;-3.920703125;61.946932781712675
85053;BME280;75382;46.706;12.340;2024-01-30T01:27:19;1032.8366751145877;;;-3.915625;62.1126068901313
85053;BME280;75382;46.706;12.340;2024-01-30T01:28:16;1032.8151282614153;;;-3.915625;62.11761614166293
85053;BME280;75382;46.706;12.340;2024-01-30T01:29:17;1032.8571077736688;;;-3.9359375;62.11195793449856
85053;BME280;75382;46.706;12.340;2024-01-30T01:30:22;1032.8974727305285;;;-3.920703125;62.170627729401055
85053;BME280;75382;46.706;12.340;2024-01-30T01:31:19;1032.851706273686;;;-3.9359375;62.11696703684746
85053;BME280;75382;46.706;12.340;2024-01-30T01:32:17;1032.8441909960109;;;-3.930859375;62.1012905893553
85053;BME280;75382;46.706;12.340;2024-01-30T01:33:16;1032.8791837910894;;;-3.9359375;62.15462697751331
85053;BME280;75382;46.706;12.340;2024-01-30T01:34:16;1032.9109175287367;;;-3.9359375;62.03630255167781
85053;BME280;75382;46.706;12.340;2024-01-30T01:35:16;1032.8613936990778;;;-3.941015625;62.0733133790046
85053;BME280;75382;46.706;12.340;2024-01-30T01:36:16;1032.836088999789;;;-3.951171875;62.1379765100115
85053;BME280;75382;46.706;12.340;2024-01-30T01:37:16;1032.8473608039235;;;-3.95625;62.29731140836345
85053;BME280;75382;46.706;12.340;2024-01-30T01:38:16;1032.8220864421414;;;-3.95625;62.381984439645585
85053;BME280;75382;46.706;12.340;2024-01-30T01:39:16;1032.7956962789199;;;-3.95625;62.115006989316775
85053;BME280;75382;46.706;12.340;2024-01-30T01:40:16;1032.7994536650122;;;-3.95625;62.29633102377184
85053;BME280;75382;46.706;12.340;2024-01-30T01:41:16;1032.7983674330894;;;-3.95625;62.301337056191315
85053;BME280;75382;46.706;12.340;2024-01-30T01:42:16;1032.7833086457467;;;-3.9767578125;62.23701620560819
85053;BME280;75382;46.706;12.340;2024-01-30T01:43:16;1032.7687781339368;;;-3.9666015625;62.09334973567919
85053;BME280;75382;46.706;12.340;2024-01-30T01:44:17;1032.781664596319;;;-3.9767578125;62.31167570808278
85053;BME280;75382;46.706;12.340;2024-01-30T01:45:16;1032.7838370353008;;;-3.9818359375;62.31668137321101
85053;BME280;75382;46.706;12.340;2024-01-30T01:46:17;1032.7509898352937;;;-3.9716796875;62.51332614910835
85053;BME280;75382;46.706;12.340;2024-01-30T01:47:16;1032.7547471032142;;;-3.9869140625;62.34802237180311
85053;BME280;75382;46.706;12.340;2024-01-30T01:48:16;1032.7477609144385;;;-3.9818359375;62.20436727248249
85053;BME280;75382;46.706;12.340;2024-01-30T01:49:16;1032.764991630123;;;-3.9869140625;62.17867941963624
85053;BME280;75382;46.706;12.340;2024-01-30T01:50:21;1032.7364596934822;;;-3.9869140625;62.60930526705193
85053;BME280;75382;46.706;12.340;2024-01-30T01:51:16;1032.7420697324342;;;-3.9869140625;62.32103252454568
85053;BME280;75382;46.706;12.340;2024-01-30T01:52:17;1032.7434459732035;;;-3.9970703125;62.47066788596078
85053;BME280;75382;46.706;12.340;2024-01-30T01:53:22;1032.7259254048627;;;-3.9919921875;62.33637515898165
85053;BME280;75382;46.706;12.340;2024-01-30T01:54:17;1032.730530399928;;;-3.9869140625;62.52899316380102
85053;BME280;75382;46.706;12.340;2024-01-30T01:55:17;1032.7345258893463;;;-3.9919921875;62.51266713479866
85053;BME280;75382;46.706;12.340;2024-01-30T01:56:17;1032.7334397064656;;;-4.0021484375;62.385021780225365
85053;BME280;75382;46.706;12.340;2024-01-30T01:57:19;1032.783807166363;;;-3.9919921875;62.46434876328723
85053;BME280;75382;46.706;12.340;2024-01-30T01:58:17;1032.7296527463923;;;-4.0021484375;62.28238527188117
85053;BME280;75382;46.706;12.340;2024-01-30T01:59:17;1032.7215808497226;;;-4.0021484375;62.474342176836075
85053;BME280;75382;46.706;12.340;2024-01-30T02:00:17;1032.7162095264666;;;-4.0072265625;62.346044559854256
85053;BME280;75382;46.706;12.340;2024-01-30T02:01:18;1032.73449588517;;;-4.0224609375;62.441035182548134
85053;BME280;75382;46.706;12.340;2024-01-30T02:02:19;1032.6634632414193;;;-4.0123046875;62.47934498864921
85053;BME280;75382;46.706;12.340;2024-01-30T02:03:18;1032.73126712592;;;-4.0173828125;62.441692671167296
85053;BME280;75382;46.706;12.340;2024-01-30T02:04:16;1032.6855067534757;;;-4.0072265625;62.68695144554614
85053;BME280;75382;46.706;12.340;2024-01-30T02:05:17;1032.7102801971007;;;-4.0123046875;62.70794549982319
85053;BME280;75382;46.706;12.340;2024-01-30T02:06:18;1032.7323229649987;;;-4.0173828125;62.61664838220665
85053;BME280;75382;46.706;12.340;2024-01-30T02:07:16;1032.701650268548;;;-4.0173828125;62.59631441251463
85053;BME280;75382;46.706;12.340;2024-01-30T02:08:16;1032.6617900282367;;;-4.0326171875;62.600984725817845
85053;BME280;75382;46.706;12.340;2024-01-30T02:09:16;1032.7436234379961;;;-4.0224609375;62.35104904192952
85053;BME280;75382;46.706;12.340;2024-01-30T02:10:16;1032.7242201087965;;;-4.0224609375;62.21709306880026
85053;BME280;75382;46.706;12.340;2024-01-30T02:11:17;1032.7279762656317;;;-4.0275390625;62.334397936383446
85053;BME280;75382;46.706;12.340;2024-01-30T02:12:19;1032.736047765432;;;-4.037890625;62.45071202573588
85053;BME280;75382;46.706;12.340;2024-01-30T02:13:18;1032.7059036930177;;;-4.048046875;62.54700895445568
85053;BME280;75382;46.706;12.340;2024-01-30T02:14:16;1032.6940445639807;;;-4.037890625;62.269107094623365
85053;BME280;75382;46.706;12.340;2024-01-30T02:15:16;1032.6749109123116;;;-4.048046875;62.39641106035156
85053;BME280;75382;46.706;12.340;2024-01-30T02:16:16;1032.6845963779372;;;-4.053125;62.299789105379794
85053;BME280;75382;46.706;12.340;2024-01-30T02:17:16;1032.6791942283628;;;-4.06328125;62.33743689134327
85053;BME280;75382;46.706;12.340;2024-01-30T02:18:16;1032.6883522504459;;;-4.068359375;62.26246851709128
85053;BME280;75382;46.706;12.340;2024-01-30T02:19:16;1032.654421612588;;;-4.068359375;62.19315775683733
85053;BME280;75382;46.706;12.340;2024-01-30T02:20:16;1032.6797214950484;;;-4.068359375;62.23548430098522
85053;BME280;75382;46.706;12.340;2024-01-30T02:21:16;1032.691548003628;;;-4.078515625;62.59333861639365
85053;BME280;75382;46.706;12.340;2024-01-30T02:22:16;1032.6560358027916;;;-4.0734375;62.3687696662382
85053;BME280;75382;46.706;12.340;2024-01-30T02:23:16;1032.598421257277;;;-4.09375;62.378107000852
85053;BME280;75382;46.706;12.340;2024-01-30T02:24:16;1032.6420029216383;;;-4.09375;62.5646879840143
85053;BME280;75382;46.706;12.340;2024-01-30T02:25:16;1032.6613725653692;;;-4.098828125;62.4793951019415
85053;BME280;75382;46.706;12.340;2024-01-30T02:26:16;1032.6506005483363;;;-4.1142578125;62.2178459634957
85053;BME280;75382;46.706;12.340;2024-01-30T02:27:16;1032.712463635533;;;-4.1193359375;62.18488080033055
85053;BME280;75382;46.706;12.340;2024-01-30T02:28:16;1032.719972369854;;;-4.1244140625;62.48906818864798
85053;BME280;75382;46.706;12.340;2024-01-30T02:29:16;1032.7188842905073;;;-4.1193359375;62.36047378884899
85053;BME280;75382;46.706;12.340;2024-01-30T02:30:17;1032.689830981326;;;-4.10390625;62.24852645812531
85053;BME280;75382;46.706;12.340;2024-01-30T02:31:16;1032.7048836616898;;;-4.1294921875;62.46076843293194
85053;BME280;75382;46.706;12.340;2024-01-30T02:32:19;1032.7503127299392;;;-4.1294921875;62.35448707395834
85053;BME280;75382;46.706;12.340;2024-01-30T02:33:16;1032.7750487112448;;;-4.1396484375;62.306183758734505
85053;BME280;75382;46.706;12.340;2024-01-30T02:34:16;1032.7282417164497;;;-4.1447265625;62.34817260766719
85053;BME280;75382;46.706;12.340;2024-01-30T02:35:16;1032.6996777020165;;;-4.1447265625;62.31184187104591
85053;BME280;75382;46.706;12.340;2024-01-30T02:36:16;1032.7271532437312;;;-4.1548828125;62.27887627587055
85053;BME280;75382;46.706;12.340;2024-01-30T02:37:17;1032.7443440094335;;;-4.1498046875;62.203582837831945
85053;BME280;75382;46.706;12.340;2024-01-30T02:38:16;1032.7152921243198;;;-4.1548828125;62.21892148090244
85053;BME280;75382;46.706;12.340;2024-01-30T02:39:16;1032.6786959786573;;;-4.1599609375;62.448449035530665
85053;BME280;75382;46.706;12.340;2024-01-30T02:40:16;1032.7082729390088;;;-4.1498046875;62.561052614727046
85053;BME280;75382;46.706;12.340;2024-01-30T02:41:19;1032.692133280103;;;-4.1751953125;62.3788289383813
85053;BME280;75382;46.706;12.340;2024-01-30T02:42:16;1032.6943102203159;;;-4.18046875;62.45344982237923
85053;BME280;75382;46.706;12.340;2024-01-30T02:43:16;1032.6937472457025;;;-4.1548828125;62.19226950044416
85053;BME280;75382;46.706;12.340;2024-01-30T02:44:17;1032.6571517196348;;;-4.1599609375;62.4161395868929
85053;BME280;75382;46.706;12.340;2024-01-30T02:45:19;1032.65448631143;;;-4.1751953125;62.373498812020436
85053;BME280;75382;46.706;12.340;2024-01-30T02:46:16;1032.6630819103582;;;-4.1751953125;62.60768523831715
85053;BME280;75382;46.706;12.340;2024-01-30T02:47:16;1032.641012213903;;;-4.185546875;62.53306867616746
85053;BME280;75382;46.706;12.340;2024-01-30T02:48:16;1032.6022774265139;;;-4.1751953125;62.37784371836021
85053;BME280;75382;46.706;12.340;2024-01-30T02:49:16;1032.6420635173822;;;-4.18046875;62.57570691397475
85053;BME280;75382;46.706;12.340;2024-01-30T02:50:17;1032.6173288669443;;;-4.185546875;62.44213145182308
85053;BME280;75382;46.706;12.340;2024-01-30T02:51:17;1032.6635698639855;;;-4.185546875;62.42614173649121
85053;BME280;75382;46.706;12.340;2024-01-30T02:52:16;1032.6447283258135;;;-4.185546875;62.527078436043695
85053;BME280;75382;46.706;12.340;2024-01-30T02:53:16;1032.6334682304891;;;-4.1751953125;62.5433978873314
85053;BME280;75382;46.706;12.340;2024-01-30T02:54:16;1032.6259242830984;;;-4.195703125;62.57504533481557
85053;BME280;75382;46.706;12.340;2024-01-30T02:55:18;1032.630766052705;;;-4.190625;62.71894193489352
85053;BME280;75382;46.706;12.340;2024-01-30T02:56:16;1032.666835426176;;;-4.190625;62.71827684460819
85053;BME280;75382;46.706;12.340;2024-01-30T02:57:16;1032.6425890219955;;;-4.195703125;62.6976243077769
85053;BME280;75382;46.706;12.340;2024-01-30T02:58:16;1032.6205198733182;;;-4.20078125;62.52174873848223
85053;BME280;75382;46.706;12.340;2024-01-30T02:59:16;1032.6140642884416;;;-4.190625;62.63367061729365
85053;BME280;75382;46.706;12.340;2024-01-30T03:00:16;1032.6420635173822;;;-4.190625;62.50042986395167
85053;BME280;75382;46.706;12.340;2024-01-30T03:01:19;1032.6334310461727;;;-4.190625;62.55839520956358
85053;BME280;75382;46.706;12.340;2024-01-30T03:02:16;1032.6377472907798;;;-4.195703125;62.43147165003051
85053;BME280;75382;46.706;12.340;2024-01-30T03:03:16;1032.6151525527953;;;-4.190625;62.724271320601495
85053;BME280;75382;46.706;12.340;2024-01-30T03:04:16;1032.625361562654;;;-4.20078125;62.63900013785719
85053;BME280;75382;46.706;12.340;2024-01-30T03:05:16;1032.6145898353802;;;-4.2109375;62.55306569109378
85053;BME280;75382;46.706;12.340;2024-01-30T03:06:18;1032.5879149423663;;;-4.20078125;62.43916838693841
85053;BME280;75382;46.706;12.340;2024-01-30T03:07:16;1032.6169643378319;;;-4.2109375;62.75025226138634
85053;BME280;75382;46.706;12.340;2024-01-30T03:08:16;1032.5911426519397;;;-4.195703125;62.57339120644091
85053;BME280;75382;46.706;12.340;2024-01-30T03:09:16;1032.5900542605943;;;-4.216015625;62.546414084822445
85053;BME280;75382;46.706;12.340;2024-01-30T03:10:16;1032.5997373109835;;;-4.216015625;62.62102309591915
85053;BME280;75382;46.706;12.340;2024-01-30T03:11:16;1032.597034939669;;;-4.23125;62.64632888132285
85053;BME280;75382;46.706;12.340;2024-01-30T03:12:19;1032.597034939669;;;-4.226171875;62.5564112574994
85053;BME280;75382;46.706;12.340;2024-01-30T03:13:16;1032.5754920479199;;;-4.23125;62.646660679200494
85053;BME280;75382;46.706;12.340;2024-01-30T03:14:16;1032.5771058490968;;;-4.22109375;62.84881926665636
85053;BME280;75382;46.706;12.340;2024-01-30T03:15:16;1032.588402459146;;;-4.226171875;62.672973048256566
85053;BME280;75382;46.706;12.340;2024-01-30T03:16:16;1032.5604046139993;;;-4.24140625;62.63034228004564
85053;BME280;75382;46.706;12.340;2024-01-30T03:17:16;1032.5329704653172;;;-4.246484375;62.73625237803717
85053;BME280;75382;46.706;12.340;2024-01-30T03:18:16;1032.5528988382243;;;-4.24140625;62.78420928105773
85053;BME280;75382;46.706;12.340;2024-01-30T03:19:16;1032.571175888214;;;-4.2517578125;62.71527063366526
85053;BME280;75382;46.706;12.340;2024-01-30T03:20:19;1032.5415646296797;;;-4.2619140625;62.954046065515755
85053;BME280;75382;46.706;12.340;2024-01-30T03:21:16;1032.5259523666095;;;-4.2619140625;62.78354227189743
85053;BME280;75382;46.706;12.340;2024-01-30T03:22:16;1032.5200226712047;;;-4.2517578125;62.85214175770111
85053;BME280;75382;46.706;12.340;2024-01-30T03:23:16;1032.5334576182365;;;-4.2568359375;62.80418815351304
85053;BME280;75382;46.706;12.340;2024-01-30T03:24:16;1032.4737124859494;;;-4.2669921875;62.66498742123175
85053;BME280;75382;46.706;12.340;2024-01-30T03:25:16;1032.4459521917925;;;-4.2771484375;62.744577962399596
85053;BME280;75382;46.706;12.340;2024-01-30T03:26:16;1032.4330431041562;;;-4.2771484375;62.76622372784813
85053;BME280;75382;46.706;12.340;2024-01-30T03:27:16;1032.4669294680198;;;-4.2771484375;62.87278497546557
85053;BME280;75382;46.706;12.340;2024-01-30T03:28:16;1032.4696317042121;;;-4.2873046875;62.6476745815411
85053;BME280;75382;46.706;12.340;2024-01-30T03:29:16;1032.4674544345187;;;-4.2873046875;62.73891678451676
85053;BME280;75382;46.706;12.340;2024-01-30T03:30:16;1032.4346567398845;;;-4.2873046875;62.748906485019226
85053;BME280;75382;46.706;12.340;2024-01-30T03:31:16;1032.4287274818157;;;-4.2873046875;62.99398165751833
85053;BME280;75382;46.706;12.340;2024-01-30T03:32:16;1032.4588612835635;;;-4.2873046875;62.74923969174644
85053;BME280;75382;46.706;12.340;2024-01-30T03:33:16;1032.483590675794;;;-4.2923828125;63.01529169968773
85053;BME280;75382;46.706;12.340;2024-01-30T03:34:19;1032.4776609674798;;;-4.2923828125;62.92505841657398
85053;BME280;75382;46.706;12.340;2024-01-30T03:35:16;1032.463663281771;;;-4.3025390625;62.66898681393942
85053;BME280;75382;46.706;12.340;2024-01-30T03:36:16;1032.4738694982657;;;-4.2873046875;62.91939544850681
85053;BME280;75382;46.706;12.340;2024-01-30T03:37:16;1032.4701176707445;;;-4.2873046875;63.04725651022309
85053;BME280;75382;46.706;12.340;2024-01-30T03:38:16;1032.488431549436;;;-4.2923828125;62.85546309807386
85053;BME280;75382;46.706;12.340;2024-01-30T03:39:17;1032.4528929084263;;;-4.3025390625;63.06787909655601
85053;BME280;75382;46.706;12.340;2024-01-30T03:40:19;1032.4916587988537;;;-4.2974609375;62.785855182530156
85053;BME280;75382;46.706;12.340;2024-01-30T03:41:16;1032.4889562456692;;;-4.2974609375;62.93502997808325
85053;BME280;75382;46.706;12.340;2024-01-30T03:42:16;1032.4894808438673;;;-4.2974609375;62.85478121759028
85053;BME280;75382;46.706;12.340;2024-01-30T03:43:16;1032.4878672457519;;;-4.3025390625;62.74756073754544
85053;BME280;75382;46.706;12.340;2024-01-30T03:44:16;1032.4760076039188;;;-4.3177734375;62.700276827588475
85053;BME280;75382;46.706;12.340;2024-01-30T03:45:16;1032.4910540502715;;;-4.3228515625;62.97630611164782
85053;BME280;75382;46.706;12.340;2024-01-30T03:46:16;1032.486737621175;;;-4.328125;62.72591704684247